createdAt,value
2018-06-08T00:00:31.092Z,15.83
2018-06-08T00:01:36.099Z,15.85
2018-06-08T00:02:44.131Z,15.81
2018-06-08T00:03:52.233Z,15.85
2018-06-08T00:05:00.320Z,15.76
2018-06-08T00:06:08.458Z,15.80
2018-06-08T00:07:17.444Z,15.80
2018-06-08T00:08:24.512Z,15.81
2018-06-08T00:09:32.577Z,15.67
2018-06-08T00:10:40.648Z,15.78
2018-06-08T00:11:48.699Z,15.75
2018-06-08T00:12:56.867Z,15.72
2018-06-08T00:14:04.849Z,15.67
2018-06-08T00:15:12.898Z,15.62
2018-06-08T00:16:20.977Z,15.57
2018-06-08T00:17:29.047Z,15.57
2018-06-08T00:18:37.107Z,15.60
2018-06-08T00:19:45.253Z,15.57
2018-06-08T00:20:53.266Z,15.57
2018-06-08T00:22:01.399Z,15.59
2018-06-08T00:23:09.390Z,15.59
2018-06-08T00:24:17.461Z,15.52
2018-06-08T00:25:25.529Z,15.60
2018-06-08T00:26:33.581Z,15.52
2018-06-08T00:27:41.658Z,15.51
2018-06-08T00:28:49.731Z,15.43
2018-06-08T00:29:57.817Z,15.52
2018-06-08T00:31:05.850Z,15.51
2018-06-08T00:32:13.926Z,15.50
2018-06-08T00:33:21.988Z,15.47
2018-06-08T00:34:30.325Z,15.47
2018-06-08T00:35:38.120Z,15.48
2018-06-08T00:36:46.189Z,15.52
2018-06-08T00:37:54.258Z,15.48
2018-06-08T00:39:02.328Z,15.51
2018-06-08T00:40:10.394Z,15.35
2018-06-08T00:41:18.465Z,15.30
2018-06-08T00:42:26.517Z,15.44
2018-06-08T00:43:34.576Z,15.33
2018-06-08T00:44:42.660Z,15.33
2018-06-08T00:45:50.828Z,15.36
2018-06-08T00:46:58.802Z,15.36
2018-06-08T00:48:06.857Z,15.33
2018-06-08T00:49:14.917Z,15.32
2018-06-08T00:50:22.991Z,15.29
2018-06-08T00:51:31.049Z,15.33
2018-06-08T00:52:39.132Z,15.29
2018-06-08T00:53:47.206Z,15.29
2018-06-08T00:54:55.260Z,15.35
2018-06-08T00:56:03.332Z,15.32
2018-06-08T00:57:11.403Z,15.27
2018-06-08T00:58:19.469Z,15.22
2018-06-08T00:59:27.534Z,15.17
2018-06-08T01:00:35.603Z,15.08
2018-06-08T01:01:43.699Z,15.11
2018-06-08T01:02:51.930Z,15.07
2018-06-08T01:04:01.055Z,15.10
2018-06-08T01:05:08.060Z,15.07
2018-06-08T01:06:16.140Z,15.10
2018-06-08T01:07:24.201Z,15.02
2018-06-08T01:08:32.267Z,15.10
2018-06-08T01:09:40.338Z,14.96
2018-06-08T01:10:48.390Z,14.99
2018-06-08T01:11:56.482Z,15.05
2018-06-08T01:13:04.529Z,15.00
2018-06-08T01:14:12.619Z,15.11
2018-06-08T01:15:20.678Z,15.19
2018-06-08T01:16:28.748Z,15.07
2018-06-08T01:17:37.064Z,15.10
2018-06-08T01:18:44.876Z,15.07
2018-06-08T01:19:52.947Z,15.07
2018-06-08T01:21:01.008Z,15.10
2018-06-08T01:22:09.083Z,15.08
2018-06-08T01:23:17.140Z,15.18
2018-06-08T01:24:25.215Z,15.05
2018-06-08T01:25:33.284Z,15.11
2018-06-08T01:26:41.352Z,15.11
2018-06-08T01:27:49.413Z,15.08
2018-06-08T01:28:57.479Z,15.10
2018-06-08T01:30:05.560Z,15.17
2018-06-08T01:31:13.626Z,15.10
2018-06-08T01:32:21.687Z,15.07
2018-06-08T01:33:29.747Z,15.10
2018-06-08T01:34:37.829Z,15.07
2018-06-08T01:35:45.886Z,15.08
2018-06-08T01:36:53.928Z,15.08
2018-06-08T01:38:02.007Z,15.10
2018-06-08T01:39:10.088Z,15.10
2018-06-08T01:40:18.145Z,15.11
2018-06-08T01:41:26.472Z,15.10
2018-06-08T01:42:34.261Z,15.10
2018-06-08T01:43:42.601Z,14.97
2018-06-08T01:44:51.451Z,14.97
2018-06-08T01:45:58.482Z,14.94
2018-06-08T01:47:06.600Z,14.93
2018-06-08T01:48:14.597Z,14.82
2018-06-08T01:49:22.686Z,14.71
2018-06-08T01:50:30.753Z,14.85
2018-06-08T01:51:38.864Z,14.63
2018-06-08T01:52:46.890Z,14.73
2018-06-08T01:53:54.951Z,14.74
2018-06-08T01:55:03.026Z,14.71
2018-06-08T01:56:11.177Z,14.71
2018-06-08T01:57:19.156Z,14.79
2018-06-08T01:58:27.224Z,14.82
2018-06-08T01:59:35.298Z,14.79
2018-06-08T02:00:43.550Z,14.89
2018-06-08T02:01:51.620Z,14.81
2018-06-08T02:02:59.695Z,14.81
2018-06-08T02:04:07.770Z,14.86
2018-06-08T02:05:15.825Z,14.81
2018-06-08T02:06:23.878Z,14.70
2018-06-08T02:07:31.959Z,14.74
2018-06-08T02:08:40.038Z,14.82
2018-06-08T02:09:48.104Z,14.61
2018-06-08T02:10:56.156Z,14.70
2018-06-08T02:12:04.215Z,14.66
2018-06-08T02:13:12.336Z,14.70
2018-06-08T02:14:20.362Z,14.67
2018-06-08T02:15:28.459Z,14.67
2018-06-08T02:16:36.520Z,14.67
2018-06-08T02:17:44.566Z,14.59
2018-06-08T02:18:52.651Z,14.53
2018-06-08T02:20:00.718Z,14.61
2018-06-08T02:21:09.011Z,14.53
2018-06-08T02:22:17.527Z,14.44
2018-06-08T02:23:25.336Z,14.43
2018-06-08T02:24:33.385Z,14.40
2018-06-08T02:25:41.820Z,14.37
2018-06-08T02:26:49.577Z,14.36
2018-06-08T02:27:57.687Z,14.41
2018-06-08T02:29:05.651Z,14.51
2018-06-08T02:30:13.729Z,14.45
2018-06-08T02:31:22.086Z,14.48
2018-06-08T02:32:29.857Z,14.43
2018-06-08T02:33:37.970Z,14.52
2018-06-08T02:34:46.002Z,14.44
2018-06-08T02:35:54.046Z,14.43
2018-06-08T02:37:02.186Z,14.51
2018-06-08T02:38:10.192Z,14.48
2018-06-08T02:39:18.269Z,14.44
2018-06-08T02:40:26.335Z,14.40
2018-06-08T02:41:34.571Z,14.41
2018-06-08T02:42:42.705Z,14.43
2018-06-08T02:43:51.014Z,14.44
2018-06-08T02:44:58.845Z,14.43
2018-06-08T02:46:06.872Z,14.41
2018-06-08T02:47:14.927Z,14.40
2018-06-08T02:48:22.999Z,14.38
2018-06-08T02:49:31.105Z,14.40
2018-06-08T02:50:39.184Z,14.36
2018-06-08T02:51:47.215Z,14.45
2018-06-08T02:52:55.543Z,14.38
2018-06-08T02:54:03.341Z,14.41
2018-06-08T02:55:11.393Z,14.51
2018-06-08T02:56:19.477Z,14.45
2018-06-08T02:57:27.532Z,14.45
2018-06-08T02:58:35.600Z,14.48
2018-06-08T02:59:43.687Z,14.44
2018-06-08T03:00:51.736Z,14.45
2018-06-08T03:01:59.814Z,14.43
2018-06-08T03:03:07.868Z,14.48
2018-06-08T03:04:15.931Z,14.41
2018-06-08T03:05:24.023Z,14.48
2018-06-08T03:06:32.277Z,14.41
2018-06-08T03:07:40.590Z,14.44
2018-06-08T03:08:48.402Z,14.41
2018-06-08T03:09:56.664Z,14.43
2018-06-08T03:11:04.738Z,14.26
2018-06-08T03:12:12.809Z,14.33
2018-06-08T03:13:20.871Z,14.28
2018-06-08T03:14:28.970Z,14.22
2018-06-08T03:15:36.988Z,14.22
2018-06-08T03:16:45.065Z,14.30
2018-06-08T03:17:53.144Z,14.22
2018-06-08T03:19:01.203Z,14.20
2018-06-08T03:20:09.401Z,14.04
2018-06-08T03:21:17.348Z,14.03
2018-06-08T03:22:25.411Z,14.11
2018-06-08T03:23:33.480Z,14.07
2018-06-08T03:24:41.543Z,14.11
2018-06-08T03:25:49.591Z,14.05
2018-06-08T03:26:57.672Z,14.04
2018-06-08T03:28:05.748Z,14.11
2018-06-08T03:29:13.803Z,14.03
2018-06-08T03:30:21.858Z,14.00
2018-06-08T03:31:29.940Z,13.91
2018-06-08T03:32:38.002Z,13.91
2018-06-08T03:33:46.077Z,13.80
2018-06-08T03:34:54.135Z,13.80
2018-06-08T03:36:02.258Z,13.85
2018-06-08T03:37:10.271Z,13.82
2018-06-08T03:38:18.336Z,13.79
2018-06-08T03:39:26.397Z,13.91
2018-06-08T03:40:34.431Z,13.91
2018-06-08T03:41:42.533Z,13.86
2018-06-08T03:42:50.593Z,13.86
2018-06-08T03:43:58.653Z,13.85
2018-06-08T03:45:06.732Z,13.87
2018-06-08T03:46:14.782Z,14.01
2018-06-08T03:47:22.854Z,13.91
2018-06-08T03:48:30.935Z,13.93
2018-06-08T03:49:39.089Z,13.93
2018-06-08T03:50:47.061Z,14.04
2018-06-08T03:51:55.130Z,14.12
2018-06-08T03:53:03.205Z,14.13
2018-06-08T03:54:11.277Z,14.23
2018-06-08T03:55:19.327Z,14.26
2018-06-08T03:56:27.384Z,14.36
2018-06-08T03:57:35.461Z,14.40
2018-06-08T03:58:43.539Z,14.51
2018-06-08T03:59:51.598Z,14.56
2018-06-08T04:00:59.670Z,14.55
2018-06-08T04:02:07.726Z,14.59
2018-06-08T04:03:15.803Z,14.59
2018-06-08T04:04:23.845Z,14.59
2018-06-08T04:05:31.944Z,14.51
2018-06-08T04:06:39.991Z,14.66
2018-06-08T04:07:48.051Z,14.70
2018-06-08T04:08:56.125Z,14.85
2018-06-08T04:10:04.197Z,14.81
2018-06-08T04:11:12.271Z,14.86
2018-06-08T04:12:20.329Z,14.79
2018-06-08T04:13:28.389Z,14.92
2018-06-08T04:14:36.457Z,14.92
2018-06-08T04:15:44.499Z,15.00
2018-06-08T04:16:52.584Z,15.12
2018-06-08T04:18:00.657Z,15.08
2018-06-08T04:19:08.931Z,15.05
2018-06-08T04:20:16.991Z,15.08
2018-06-08T04:21:25.064Z,15.17
2018-06-08T04:22:33.150Z,15.19
2018-06-08T04:23:41.186Z,15.33
2018-06-08T04:24:49.250Z,15.29
2018-06-08T04:25:57.332Z,15.35
2018-06-08T04:27:05.423Z,15.36
2018-06-08T04:28:13.512Z,15.45
2018-06-08T04:29:21.548Z,15.47
2018-06-08T04:30:29.608Z,15.59
2018-06-08T04:31:37.681Z,15.60
2018-06-08T04:32:45.823Z,15.62
2018-06-08T04:33:53.809Z,15.76
2018-06-08T04:35:01.957Z,15.78
2018-06-08T04:36:10.198Z,15.87
2018-06-08T04:37:18.308Z,15.84
2018-06-08T04:38:27.594Z,15.98
2018-06-08T04:39:34.115Z,15.94
2018-06-08T04:40:42.327Z,16.10
2018-06-08T04:41:50.366Z,16.09
2018-06-08T04:42:58.347Z,16.18
2018-06-08T04:44:06.423Z,16.28
2018-06-08T04:45:14.712Z,16.34
2018-06-08T04:46:22.747Z,16.46
2018-06-08T04:47:30.819Z,16.57
2018-06-08T04:48:38.886Z,16.64
2018-06-08T04:49:47.193Z,16.66
2018-06-08T04:50:55.224Z,16.80
2018-06-08T04:52:03.292Z,16.86
2018-06-08T04:53:11.352Z,16.86
2018-06-08T04:54:19.420Z,16.99
2018-06-08T04:55:27.695Z,17.10
2018-06-08T04:56:35.568Z,17.19
2018-06-08T04:57:43.646Z,17.20
2018-06-08T04:58:51.708Z,17.23
2018-06-08T04:59:59.763Z,17.34
2018-06-08T05:01:07.836Z,17.41
2018-06-08T05:02:15.900Z,17.46
2018-06-08T05:03:23.984Z,17.50
2018-06-08T05:04:32.041Z,17.68
2018-06-08T05:05:40.806Z,18.09
2018-06-08T05:06:48.229Z,18.55
2018-06-08T05:07:56.440Z,18.70
2018-06-08T05:09:05.488Z,18.48
2018-06-08T05:10:12.542Z,18.49
2018-06-08T05:11:20.729Z,18.33
2018-06-08T05:12:28.770Z,18.33
2018-06-08T05:13:36.593Z,18.18
2018-06-08T05:14:44.984Z,18.16
2018-06-08T05:15:52.758Z,18.19
2018-06-08T05:17:00.813Z,18.19
2018-06-08T05:18:09.795Z,18.24
2018-06-08T05:19:16.973Z,18.24
2018-06-08T05:20:25.033Z,18.19
2018-06-08T05:21:33.086Z,18.19
2018-06-08T05:22:41.161Z,18.31
2018-06-08T05:23:49.219Z,18.33
2018-06-08T05:24:57.797Z,18.42
2018-06-08T05:26:05.561Z,18.49
2018-06-08T05:27:13.931Z,18.41
2018-06-08T05:28:21.691Z,18.51
2018-06-08T05:29:30.102Z,18.37
2018-06-08T05:30:38.033Z,18.42
2018-06-08T05:31:46.132Z,18.46
2018-06-08T05:32:54.152Z,18.48
2018-06-08T05:34:02.247Z,18.51
2018-06-08T05:35:10.313Z,18.53
2018-06-08T05:36:18.378Z,18.58
2018-06-08T05:37:26.463Z,18.57
2018-06-08T05:38:34.499Z,18.63
2018-06-08T05:39:42.591Z,18.74
2018-06-08T05:40:50.662Z,18.76
2018-06-08T05:41:58.733Z,18.76
2018-06-08T05:43:06.895Z,18.91
2018-06-08T05:44:14.904Z,18.91
2018-06-08T05:45:22.982Z,19.01
2018-06-08T05:46:30.998Z,19.12
2018-06-08T05:47:39.068Z,19.11
2018-06-08T05:48:47.157Z,19.23
2018-06-08T05:49:55.226Z,19.23
2018-06-08T05:51:03.288Z,19.38
2018-06-08T05:52:11.387Z,19.44
2018-06-08T05:53:19.472Z,19.45
2018-06-08T05:54:27.497Z,19.52
2018-06-08T05:55:35.668Z,19.56
2018-06-08T05:56:43.648Z,19.60
2018-06-08T05:57:51.726Z,19.70
2018-06-08T05:58:59.898Z,19.74
2018-06-08T06:00:07.860Z,19.74
2018-06-08T06:01:15.931Z,19.85
2018-06-08T06:02:23.970Z,20.02
2018-06-08T06:03:32.103Z,20.04
2018-06-08T06:04:40.140Z,20.03
2018-06-08T06:05:48.215Z,20.03
2018-06-08T06:06:57.292Z,19.92
2018-06-08T06:08:04.329Z,19.90
2018-06-08T06:09:12.662Z,19.77
2018-06-08T06:10:20.482Z,19.75
2018-06-08T06:11:28.665Z,19.72
2018-06-08T06:12:36.634Z,19.74
2018-06-08T06:13:44.694Z,19.72
2018-06-08T06:14:53.243Z,19.66
2018-06-08T06:16:00.857Z,19.55
2018-06-08T06:17:08.910Z,19.62
2018-06-08T06:18:16.980Z,19.56
2018-06-08T06:19:25.050Z,19.39
2018-06-08T06:20:33.130Z,19.37
2018-06-08T06:21:41.385Z,19.42
2018-06-08T06:22:49.498Z,19.35
2018-06-08T06:23:57.534Z,19.42
2018-06-08T06:25:05.608Z,19.37
2018-06-08T06:26:13.672Z,19.34
2018-06-08T06:27:21.743Z,19.38
2018-06-08T06:28:30.027Z,19.47
2018-06-08T06:29:38.089Z,19.56
2018-06-08T06:30:46.166Z,19.60
2018-06-08T06:31:54.216Z,19.66
2018-06-08T06:33:02.296Z,19.63
2018-06-08T06:34:10.368Z,19.66
2018-06-08T06:35:18.434Z,19.75
2018-06-08T06:36:26.504Z,19.94
2018-06-08T06:37:34.562Z,20.03
2018-06-08T06:38:42.945Z,20.18
2018-06-08T06:39:50.720Z,20.12
2018-06-08T06:40:58.790Z,20.29
2018-06-08T06:42:06.872Z,20.29
2018-06-08T06:43:14.940Z,20.24
2018-06-08T06:44:23.059Z,20.29
2018-06-08T06:45:31.077Z,20.24
2018-06-08T06:46:39.159Z,20.33
2018-06-08T06:47:47.233Z,20.22
2018-06-08T06:48:55.279Z,20.22
2018-06-08T06:50:04.391Z,20.27
2018-06-08T06:51:11.469Z,20.39
2018-06-08T06:52:19.493Z,20.34
2018-06-08T06:53:27.573Z,20.33
2018-06-08T06:54:35.637Z,20.49
2018-06-08T06:55:43.988Z,20.59
2018-06-08T06:56:51.778Z,20.64
2018-06-08T06:57:59.872Z,20.88
2018-06-08T06:59:07.927Z,20.95
2018-06-08T07:00:16.043Z,20.89
2018-06-08T07:01:24.043Z,21.07
2018-06-08T07:02:32.138Z,21.17
2018-06-08T07:03:40.225Z,21.30
2018-06-08T07:04:48.287Z,21.41
2018-06-08T07:05:56.614Z,21.53
2018-06-08T07:07:04.523Z,21.62
2018-06-08T07:08:13.534Z,21.62
2018-06-08T07:09:20.568Z,21.63
2018-06-08T07:10:28.661Z,21.62
2018-06-08T07:11:37.858Z,21.62
2018-06-08T07:12:44.806Z,21.68
2018-06-08T07:13:52.859Z,21.72
2018-06-08T07:15:00.969Z,21.72
2018-06-08T07:16:09.203Z,21.88
2018-06-08T07:17:17.278Z,22.10
2018-06-08T07:18:25.342Z,22.16
2018-06-08T07:19:33.439Z,22.30
2018-06-08T07:20:41.488Z,22.26
2018-06-08T07:21:49.544Z,22.07
2018-06-08T07:22:57.636Z,22.07
2018-06-08T07:24:05.723Z,22.00
2018-06-08T07:25:13.797Z,21.70
2018-06-08T07:26:21.860Z,21.63
2018-06-08T07:27:29.980Z,21.58
2018-06-08T07:28:37.999Z,21.53
2018-06-08T07:29:46.076Z,21.43
2018-06-08T07:30:54.129Z,21.47
2018-06-08T07:32:02.247Z,21.48
2018-06-08T07:33:10.298Z,21.81
2018-06-08T07:34:18.374Z,22.61
2018-06-08T07:35:26.436Z,23.25
2018-06-08T07:36:35.535Z,23.84
2018-06-08T07:37:42.584Z,24.51
2018-06-08T07:38:50.645Z,24.96
2018-06-08T07:40:00.956Z,25.48
2018-06-08T07:41:09.132Z,25.99
2018-06-08T07:42:17.108Z,26.51
2018-06-08T07:43:25.220Z,26.55
2018-06-08T07:44:33.239Z,26.89
2018-06-08T07:45:41.298Z,27.25
2018-06-08T07:46:49.409Z,27.15
2018-06-08T07:47:57.475Z,27.34
2018-06-08T07:49:05.554Z,27.55
2018-06-08T07:50:13.810Z,27.78
2018-06-08T07:51:21.910Z,28.09
2018-06-08T07:52:30.035Z,28.52
2018-06-08T07:53:38.057Z,28.72
2018-06-08T07:54:46.141Z,28.97
2018-06-08T07:55:54.254Z,29.25
2018-06-08T07:57:02.388Z,29.32
2018-06-08T07:58:10.664Z,29.49
2018-06-08T07:59:18.662Z,29.61
2018-06-08T08:00:26.741Z,29.67
2018-06-08T08:01:34.827Z,30.02
2018-06-08T08:02:42.900Z,29.86
2018-06-08T08:03:50.992Z,29.90
2018-06-08T08:04:59.092Z,30.01
2018-06-08T08:06:07.150Z,30.01
2018-06-08T08:07:15.234Z,30.01
2018-06-08T08:08:23.396Z,29.87
2018-06-08T08:09:31.499Z,29.99
2018-06-08T08:10:39.489Z,29.84
2018-06-08T08:11:47.565Z,29.32
2018-06-08T08:12:55.650Z,29.09
2018-06-08T08:14:04.310Z,29.24
2018-06-08T08:15:11.808Z,29.09
2018-06-08T08:16:19.893Z,29.00
2018-06-08T08:17:27.968Z,29.05
2018-06-08T08:18:36.059Z,28.56
2018-06-08T08:19:44.113Z,28.40
2018-06-08T08:20:52.210Z,28.47
2018-06-08T08:22:00.312Z,28.45
2018-06-08T08:23:08.388Z,28.62
2018-06-08T08:24:16.461Z,28.80
2018-06-08T08:25:24.518Z,28.97
2018-06-08T08:26:32.631Z,29.40
2018-06-08T08:27:40.713Z,29.61
2018-06-08T08:28:48.789Z,29.47
2018-06-08T08:29:56.888Z,29.02
2018-06-08T08:31:04.975Z,28.52
2018-06-08T08:32:13.046Z,28.27
2018-06-08T08:33:21.217Z,28.25
2018-06-08T08:34:29.214Z,28.46
2018-06-08T08:35:37.283Z,28.37
2018-06-08T08:36:45.373Z,28.59
2018-06-08T08:37:53.453Z,28.84
2018-06-08T08:39:01.532Z,29.16
2018-06-08T08:40:09.622Z,29.21
2018-06-08T08:41:18.522Z,29.42
2018-06-08T08:42:26.336Z,29.57
2018-06-08T08:43:40.364Z,29.59
2018-06-08T08:44:42.141Z,29.81
2018-06-08T08:45:50.502Z,29.64
2018-06-08T08:46:58.336Z,29.53
2018-06-08T08:48:06.385Z,29.61
2018-06-08T08:49:14.536Z,29.53
2018-06-08T08:50:22.579Z,29.46
2018-06-08T08:51:30.646Z,29.42
2018-06-08T08:52:38.966Z,29.49
2018-06-08T08:53:46.788Z,29.52
2018-06-08T08:54:54.863Z,29.42
2018-06-08T08:56:06.788Z,29.35
2018-06-08T08:57:14.875Z,29.50
2018-06-08T08:58:23.001Z,29.25
2018-06-08T08:59:31.025Z,29.22
2018-06-08T09:00:39.110Z,29.09
2018-06-08T09:01:47.207Z,29.09
2018-06-08T09:02:55.270Z,29.13
2018-06-08T09:04:03.356Z,29.27
2018-06-08T09:05:11.477Z,29.32
2018-06-08T09:06:19.519Z,29.42
2018-06-08T09:07:27.803Z,29.52
2018-06-08T09:08:36.890Z,29.52
2018-06-08T09:09:43.944Z,29.50
2018-06-08T09:10:52.051Z,29.47
2018-06-08T09:12:00.128Z,29.47
2018-06-08T09:13:08.226Z,29.50
2018-06-08T09:14:16.297Z,29.50
2018-06-08T09:15:24.393Z,29.68
2018-06-08T09:16:32.671Z,29.76
2018-06-08T09:17:40.746Z,29.65
2018-06-08T09:18:48.821Z,29.58
2018-06-08T09:19:56.903Z,28.83
2018-06-08T09:21:04.993Z,28.56
2018-06-08T09:22:13.056Z,28.37
2018-06-08T09:23:21.136Z,28.18
2018-06-08T09:24:29.241Z,28.22
2018-06-08T09:25:37.314Z,28.12
2018-06-08T09:26:45.882Z,28.18
2018-06-08T09:27:53.692Z,28.19
2018-06-08T09:29:01.755Z,28.06
2018-06-08T09:30:10.897Z,27.94
2018-06-08T09:31:18.938Z,27.90
2018-06-08T09:32:26.047Z,27.66
2018-06-08T09:33:34.049Z,27.64
2018-06-08T09:34:42.165Z,27.66
2018-06-08T09:35:50.259Z,27.66
2018-06-08T09:36:58.341Z,27.78
2018-06-08T09:38:06.395Z,27.75
2018-06-08T09:39:14.461Z,27.75
2018-06-08T09:40:22.581Z,27.79
2018-06-08T09:41:30.648Z,27.78
2018-06-08T09:42:38.725Z,27.61
2018-06-08T09:43:46.804Z,27.61
2018-06-08T09:44:54.883Z,27.55
2018-06-08T09:46:02.961Z,27.48
2018-06-08T09:47:11.026Z,27.22
2018-06-08T09:48:19.115Z,26.97
2018-06-08T09:49:27.191Z,26.86
2018-06-08T09:50:35.262Z,26.85
2018-06-08T09:51:43.336Z,26.93
2018-06-08T09:52:51.425Z,26.96
2018-06-08T09:53:59.512Z,26.81
2018-06-08T09:55:07.581Z,26.81
2018-06-08T09:56:15.793Z,26.89
2018-06-08T09:57:23.727Z,26.89
2018-06-08T09:58:31.818Z,26.89
2018-06-08T09:59:40.097Z,26.81
2018-06-08T10:00:48.176Z,26.64
2018-06-08T10:01:56.247Z,26.52
2018-06-08T10:03:04.305Z,26.37
2018-06-08T10:04:12.413Z,26.31
2018-06-08T10:05:20.555Z,26.30
2018-06-08T10:06:28.822Z,26.13
2018-06-08T10:07:36.909Z,26.31
2018-06-08T10:08:44.687Z,26.46
2018-06-08T10:09:52.791Z,26.61
2018-06-08T10:11:00.866Z,26.81
2018-06-08T10:12:08.982Z,27.04
2018-06-08T10:13:17.028Z,27.29
2018-06-08T10:14:25.091Z,27.47
2018-06-08T10:15:33.182Z,27.57
2018-06-08T10:16:41.303Z,27.78
2018-06-08T10:17:49.321Z,27.93
2018-06-08T10:18:57.394Z,28.04
2018-06-08T10:20:05.494Z,28.04
2018-06-08T10:21:13.548Z,28.01
2018-06-08T10:22:21.616Z,28.12
2018-06-08T10:23:29.692Z,28.16
2018-06-08T10:24:37.783Z,28.37
2018-06-08T10:25:45.851Z,28.46
2018-06-08T10:26:53.911Z,28.60
2018-06-08T10:28:02.021Z,28.64
2018-06-08T10:29:10.282Z,28.78
2018-06-08T10:30:18.355Z,28.78
2018-06-08T10:31:26.644Z,28.74
2018-06-08T10:32:34.704Z,28.75
2018-06-08T10:33:42.783Z,28.80
2018-06-08T10:34:50.876Z,28.82
2018-06-08T10:35:58.941Z,28.86
2018-06-08T10:37:07.217Z,28.86
2018-06-08T10:38:15.290Z,29.05
2018-06-08T10:39:23.385Z,29.15
2018-06-08T10:40:31.525Z,29.16
2018-06-08T10:41:39.875Z,29.20
2018-06-08T10:42:47.607Z,29.13
2018-06-08T10:43:55.778Z,28.97
2018-06-08T10:45:04.892Z,28.77
2018-06-08T10:46:11.937Z,28.89
2018-06-08T10:47:19.922Z,28.70
2018-06-08T10:48:28.281Z,28.77
2018-06-08T10:49:36.056Z,28.92
2018-06-08T10:50:44.322Z,29.03
2018-06-08T10:51:52.621Z,29.15
2018-06-08T10:53:00.698Z,28.90
2018-06-08T10:54:08.880Z,28.46
2018-06-08T10:55:16.853Z,28.31
2018-06-08T10:56:24.933Z,28.20
2018-06-08T10:57:32.999Z,28.28
2018-06-08T10:58:41.090Z,28.43
2018-06-08T10:59:49.158Z,28.60
2018-06-08T11:00:57.239Z,28.41
2018-06-08T11:02:05.309Z,28.46
2018-06-08T11:03:13.392Z,28.59
2018-06-08T11:04:21.460Z,28.65
2018-06-08T11:05:29.540Z,28.70
2018-06-08T11:06:37.608Z,28.92
2018-06-08T11:07:45.700Z,28.97
2018-06-08T11:08:53.794Z,29.13
2018-06-08T11:10:01.846Z,28.38
2018-06-08T11:11:09.926Z,28.20
2018-06-08T11:12:17.991Z,28.22
2018-06-08T11:13:26.075Z,28.25
2018-06-08T11:14:34.231Z,28.25
2018-06-08T11:15:42.223Z,28.06
2018-06-08T11:16:50.301Z,28.00
2018-06-08T11:17:58.378Z,28.13
2018-06-08T11:19:06.504Z,28.18
2018-06-08T11:20:14.516Z,28.19
2018-06-08T11:21:22.612Z,28.22
2018-06-08T11:22:30.678Z,28.23
2018-06-08T11:23:38.771Z,28.28
2018-06-08T11:24:46.927Z,28.34
2018-06-08T11:25:55.120Z,28.31
2018-06-08T11:27:03.273Z,28.25
2018-06-08T11:28:12.337Z,28.23
2018-06-08T11:29:19.636Z,28.28
2018-06-08T11:30:27.611Z,28.34
2018-06-08T11:31:35.729Z,28.46
2018-06-08T11:32:43.775Z,28.55
2018-06-08T11:33:51.885Z,28.77
2018-06-08T11:34:59.917Z,28.92
2018-06-08T11:36:08.031Z,28.86
2018-06-08T11:37:16.072Z,28.78
2018-06-08T11:38:24.172Z,28.53
2018-06-08T11:39:32.233Z,28.75
2018-06-08T11:40:40.294Z,28.84
2018-06-08T11:41:48.374Z,28.74
2018-06-08T11:42:56.505Z,28.90
2018-06-08T11:44:04.760Z,28.65
2018-06-08T11:45:12.597Z,28.57
2018-06-08T11:46:20.695Z,28.47
2018-06-08T11:47:28.759Z,28.37
2018-06-08T11:48:36.824Z,28.18
2018-06-08T11:49:44.890Z,28.34
2018-06-08T11:50:52.988Z,28.50
2018-06-08T11:52:01.106Z,28.64
2018-06-08T11:53:09.261Z,28.72
2018-06-08T11:54:17.202Z,28.84
2018-06-08T11:55:25.285Z,29.05
2018-06-08T11:56:33.669Z,29.18
2018-06-08T11:57:41.437Z,29.24
2018-06-08T11:58:49.560Z,29.39
2018-06-08T11:59:57.586Z,29.09
2018-06-08T12:01:05.685Z,28.19
2018-06-08T12:02:13.944Z,28.13
2018-06-08T12:03:21.825Z,28.18
2018-06-08T12:04:29.899Z,28.30
2018-06-08T12:05:37.974Z,28.40
2018-06-08T12:06:46.039Z,28.59
2018-06-08T12:07:54.135Z,28.71
2018-06-08T12:09:02.210Z,28.74
2018-06-08T12:10:10.273Z,28.84
2018-06-08T12:11:18.345Z,28.94
2018-06-08T12:12:26.985Z,29.18
2018-06-08T12:13:34.498Z,29.03
2018-06-08T12:14:42.654Z,28.71
2018-06-08T12:15:50.657Z,28.47
2018-06-08T12:16:58.728Z,28.55
2018-06-08T12:18:06.803Z,28.62
2018-06-08T12:19:14.875Z,28.74
2018-06-08T12:20:22.961Z,28.70
2018-06-08T12:21:31.036Z,28.70
2018-06-08T12:22:39.102Z,28.62
2018-06-08T12:23:47.190Z,28.75
2018-06-08T12:24:55.259Z,28.92
2018-06-08T12:26:03.334Z,28.84
2018-06-08T12:27:11.507Z,28.75
2018-06-08T12:28:19.494Z,28.92
2018-06-08T12:29:27.570Z,28.93
2018-06-08T12:30:35.649Z,28.82
2018-06-08T12:31:43.712Z,28.78
2018-06-08T12:32:51.889Z,28.62
2018-06-08T12:33:59.862Z,28.52
2018-06-08T12:35:07.949Z,28.43
2018-06-08T12:36:16.125Z,28.03
2018-06-08T12:37:24.075Z,27.94
2018-06-08T12:38:32.175Z,28.04
2018-06-08T12:39:40.249Z,27.66
2018-06-08T12:40:48.327Z,27.48
2018-06-08T12:41:56.404Z,27.41
2018-06-08T12:43:04.450Z,27.37
2018-06-08T12:44:12.647Z,27.33
2018-06-08T12:45:20.632Z,27.45
2018-06-08T12:46:28.710Z,27.28
2018-06-08T12:47:36.797Z,27.30
2018-06-08T12:48:44.876Z,27.22
2018-06-08T12:49:53.189Z,27.38
2018-06-08T12:51:01.007Z,27.55
2018-06-08T12:52:09.138Z,27.58
2018-06-08T12:53:17.156Z,27.75
2018-06-08T12:54:25.613Z,27.94
2018-06-08T12:55:33.337Z,28.09
2018-06-08T12:56:41.378Z,28.16
2018-06-08T12:57:49.468Z,28.30
2018-06-08T12:58:57.532Z,28.46
2018-06-08T13:00:05.611Z,28.43
2018-06-08T13:01:13.692Z,28.31
2018-06-08T13:02:21.772Z,28.40
2018-06-08T13:03:29.836Z,28.34
2018-06-08T13:04:37.925Z,28.15
2018-06-08T13:05:46.000Z,28.16
2018-06-08T13:06:54.039Z,28.10
2018-06-08T13:08:02.394Z,27.50
2018-06-08T13:09:10.211Z,27.55
2018-06-08T13:10:18.297Z,27.48
2018-06-08T13:11:26.369Z,27.38
2018-06-08T13:12:34.417Z,27.37
2018-06-08T13:13:42.530Z,27.30
2018-06-08T13:16:04.626Z,27.03
2018-06-08T13:17:13.838Z,27.04
2018-06-08T13:18:21.877Z,27.07
2018-06-08T13:19:31.157Z,27.04
2018-06-08T13:20:41.846Z,27.30
2018-06-08T13:21:54.356Z,27.52
2018-06-08T13:23:02.432Z,27.55
2018-06-08T13:25:25.647Z,27.55
2018-06-08T13:26:33.743Z,27.41
2018-06-08T13:27:41.828Z,27.22
2018-06-08T13:28:49.888Z,26.93
2018-06-08T13:29:57.946Z,26.64
2018-06-08T13:31:06.033Z,26.44
2018-06-08T13:32:14.065Z,26.16
2018-06-08T13:33:22.165Z,26.27
2018-06-08T13:34:30.661Z,26.31
2018-06-08T13:35:38.312Z,26.34
2018-06-08T13:36:46.397Z,26.49
2018-06-08T13:37:54.825Z,26.63
2018-06-08T13:39:03.176Z,26.70
2018-06-08T13:40:10.624Z,26.89
2018-06-08T13:41:18.699Z,26.73
2018-06-08T13:43:34.814Z,26.36
2018-06-08T13:44:42.916Z,26.19
2018-06-08T13:45:51.057Z,26.04
2018-06-08T13:46:59.067Z,25.99
2018-06-08T13:48:07.127Z,25.93
2018-06-08T13:49:17.210Z,25.95
2018-06-08T13:50:23.284Z,26.15
2018-06-08T13:51:31.349Z,26.13
2018-06-08T13:52:39.426Z,26.37
2018-06-08T13:53:52.798Z,26.45
2018-06-08T13:55:02.428Z,26.60
2018-06-08T13:56:10.507Z,26.34
2018-06-08T13:57:18.580Z,26.34
2018-06-08T13:58:26.638Z,26.39
2018-06-08T13:59:34.692Z,26.10
2018-06-08T14:00:42.788Z,26.33
2018-06-08T14:01:50.873Z,26.30
2018-06-08T14:02:58.939Z,26.46
2018-06-08T14:04:07.050Z,26.61
2018-06-08T14:05:15.055Z,26.86
2018-06-08T14:06:23.194Z,26.88
2018-06-08T14:07:31.240Z,26.83
2018-06-08T14:08:39.322Z,26.88
2018-06-08T14:09:47.386Z,26.66
2018-06-08T14:10:55.461Z,26.55
2018-06-08T14:12:03.525Z,26.31
2018-06-08T14:13:11.600Z,26.24
2018-06-08T14:14:19.676Z,26.04
2018-06-08T14:15:27.746Z,25.89
2018-06-08T14:16:35.812Z,25.68
2018-06-08T14:17:43.902Z,25.56
2018-06-08T14:18:51.975Z,25.34
2018-06-08T14:20:00.063Z,25.21
2018-06-08T14:21:08.111Z,25.09
2018-06-08T14:22:16.198Z,25.04
2018-06-08T14:23:24.274Z,24.84
2018-06-08T14:24:32.333Z,24.16
2018-06-08T14:25:40.412Z,23.34
2018-06-08T14:26:48.489Z,22.76
2018-06-08T14:27:56.555Z,22.36
2018-06-08T14:29:04.612Z,22.07
2018-06-08T14:30:12.695Z,21.74
2018-06-08T14:31:20.796Z,21.68
2018-06-08T14:32:28.853Z,21.60
2018-06-08T14:33:36.936Z,21.51
2018-06-08T14:34:44.968Z,21.51
2018-06-08T14:35:53.125Z,21.51
2018-06-08T14:37:01.140Z,21.44
2018-06-08T14:38:09.211Z,21.32
2018-06-08T14:39:17.280Z,21.26
2018-06-08T14:40:25.332Z,21.23